sensor_id;sensor_type;location;lat;lon;timestamp;pressure;altitude;pressure_sealevel;temperature;humidity
9289;BME280;4683;50.864;12.086;2023-06-14T00:00:39;99081.25;;;14.87;100.00
9289;BME280;4683;50.864;12.086;2023-06-14T00:03:09;99087.56;;;14.92;100.00
9289;BME280;4683;50.864;12.086;2023-06-14T00:05:40;99076.72;;;15.01;100.00
9289;BME280;4683;50.864;12.086;2023-06-14T00:08:10;99079.97;;;15.03;100.00
9289;BME280;4683;50.864;12.086;2023-06-14T00:10:39;99075.09;;;14.93;100.00
9289;BME280;4683;50.864;12.086;2023-06-14T00:13:09;99068.38;;;14.90;100.00
9289;BME280;4683;50.864;12.086;2023-06-14T00:15:38;99067.16;;;14.86;100.00
9289;BME280;4683;50.864;12.086;2023-06-14T00:22:15;99079.19;;;14.95;100.00
9289;BME280;4683;50.864;12.086;2023-06-14T00:24:43;99075.91;;;15.00;100.00
9289;BME280;4683;50.864;12.086;2023-06-14T00:27:13;99069.16;;;15.04;100.00
9289;BME280;4683;50.864;12.086;2023-06-14T00:29:42;99067.91;;;15.07;100.00
9289;BME280;4683;50.864;12.086;2023-06-14T00:32:11;99065.88;;;15.09;100.00
9289;BME280;4683;50.864;12.086;2023-06-14T00:34:39;99063.41;;;15.14;100.00
9289;BME280;4683;50.864;12.086;2023-06-14T00:37:08;99079.13;;;15.15;100.00
9289;BME280;4683;50.864;12.086;2023-06-14T00:39:38;99072.78;;;15.16;100.00
9289;BME280;4683;50.864;12.086;2023-06-14T00:42:08;99072.63;;;15.05;100.00
9289;BME280;4683;50.864;12.086;2023-06-14T00:44:37;99076.91;;;15.06;100.00
9289;BME280;4683;50.864;12.086;2023-06-14T00:47:06;99069.16;;;14.97;100.00
9289;BME280;4683;50.864;12.086;2023-06-14T00:49:34;99078.38;;;14.88;100.00
9289;BME280;4683;50.864;12.086;2023-06-14T00:52:05;99073.69;;;14.84;100.00
9289;BME280;4683;50.864;12.086;2023-06-14T00:54:34;99083.91;;;14.80;100.00
9289;BME280;4683;50.864;12.086;2023-06-14T00:57:05;99077.59;;;14.75;100.00
9289;BME280;4683;50.864;12.086;2023-06-14T00:59:35;99080.66;;;14.71;100.00
9289;BME280;4683;50.864;12.086;2023-06-14T01:02:07;99077.81;;;14.73;100.00
9289;BME280;4683;50.864;12.086;2023-06-14T01:04:36;99082.31;;;14.73;100.00
9289;BME280;4683;50.864;12.086;2023-06-14T01:07:11;99074.56;;;14.58;100.00
9289;BME280;4683;50.864;12.086;2023-06-14T01:09:57;99072.31;;;14.48;100.00
9289;BME280;4683;50.864;12.086;2023-06-14T01:12:37;99076.41;;;14.51;100.00
9289;BME280;4683;50.864;12.086;2023-06-14T01:15:08;99072.94;;;14.57;100.00
9289;BME280;4683;50.864;12.086;2023-06-14T01:17:42;99079.66;;;14.53;100.00
9289;BME280;4683;50.864;12.086;2023-06-14T01:20:15;99081.50;;;14.52;100.00
9289;BME280;4683;50.864;12.086;2023-06-14T01:22:51;99079.25;;;14.36;100.00
9289;BME280;4683;50.864;12.086;2023-06-14T01:25:21;99082.72;;;14.36;100.00
9289;BME280;4683;50.864;12.086;2023-06-14T01:27:53;99072.09;;;14.30;100.00
9289;BME280;4683;50.864;12.086;2023-06-14T01:30:23;99077.22;;;14.18;100.00
9289;BME280;4683;50.864;12.086;2023-06-14T01:32:54;99079.03;;;14.24;100.00
9289;BME280;4683;50.864;12.086;2023-06-14T01:35:23;99075.78;;;14.22;100.00
9289;BME280;4683;50.864;12.086;2023-06-14T01:37:53;99075.38;;;14.32;100.00
9289;BME280;4683;50.864;12.086;2023-06-14T01:40:23;99070.69;;;14.27;100.00
9289;BME280;4683;50.864;12.086;2023-06-14T01:42:53;99071.28;;;14.09;100.00
9289;BME280;4683;50.864;12.086;2023-06-14T01:45:22;99071.69;;;14.13;100.00
9289;BME280;4683;50.864;12.086;2023-06-14T01:47:52;99074.34;;;14.13;100.00
9289;BME280;4683;50.864;12.086;2023-06-14T01:50:21;99073.72;;;14.11;100.00
9289;BME280;4683;50.864;12.086;2023-06-14T01:52:50;99072.09;;;14.23;100.00
9289;BME280;4683;50.864;12.086;2023-06-14T01:55:21;99072.09;;;14.30;100.00
9289;BME280;4683;50.864;12.086;2023-06-14T01:57:52;99072.50;;;14.20;100.00
9289;BME280;4683;50.864;12.086;2023-06-14T02:00:21;99070.25;;;14.17;100.00
9289;BME280;4683;50.864;12.086;2023-06-14T02:02:52;99068.41;;;14.11;100.00
9289;BME280;4683;50.864;12.086;2023-06-14T02:05:21;99072.69;;;14.12;100.00
9289;BME280;4683;50.864;12.086;2023-06-14T02:07:50;99083.53;;;14.04;100.00
9289;BME280;4683;50.864;12.086;2023-06-14T02:10:22;99085.31;;;13.83;100.00
9289;BME280;4683;50.864;12.086;2023-06-14T02:12:50;99087.34;;;13.81;100.00
9289;BME280;4683;50.864;12.086;2023-06-14T02:15:18;99085.69;;;13.80;100.00
9289;BME280;4683;50.864;12.086;2023-06-14T02:17:49;99085.50;;;13.75;100.00
9289;BME280;4683;50.864;12.086;2023-06-14T02:20:18;99087.53;;;13.73;100.00
9289;BME280;4683;50.864;12.086;2023-06-14T02:22:46;99082.66;;;13.77;100.00
9289;BME280;4683;50.864;12.086;2023-06-14T02:25:15;99089.56;;;13.71;100.00
9289;BME280;4683;50.864;12.086;2023-06-14T02:31:47;99091.59;;;13.69;100.00
9289;BME280;4683;50.864;12.086;2023-06-14T02:34:16;99103.41;;;13.66;100.00
9289;BME280;4683;50.864;12.086;2023-06-14T02:36:46;99100.75;;;13.66;100.00
9289;BME280;4683;50.864;12.086;2023-06-14T02:39:15;99096.09;;;13.68;100.00
9289;BME280;4683;50.864;12.086;2023-06-14T02:41:45;99097.28;;;13.66;100.00
9289;BME280;4683;50.864;12.086;2023-06-14T02:44:14;99090.97;;;13.67;100.00
9289;BME280;4683;50.864;12.086;2023-06-14T02:46:46;99100.53;;;13.61;100.00
9289;BME280;4683;50.864;12.086;2023-06-14T02:49:16;99106.25;;;13.58;100.00
9289;BME280;4683;50.864;12.086;2023-06-14T02:51:45;99106.22;;;13.52;100.00
9289;BME280;4683;50.864;12.086;2023-06-14T02:54:14;99114.56;;;13.49;100.00
9289;BME280;4683;50.864;12.086;2023-06-14T02:56:44;99111.47;;;13.38;100.00
9289;BME280;4683;50.864;12.086;2023-06-14T02:59:15;99123.09;;;13.37;100.00
9289;BME280;4683;50.864;12.086;2023-06-14T03:01:46;99117.63;;;13.45;100.00
9289;BME280;4683;50.864;12.086;2023-06-14T03:04:14;99121.72;;;13.55;100.00
9289;BME280;4683;50.864;12.086;2023-06-14T03:06:44;99122.19;;;13.65;100.00
9289;BME280;4683;50.864;12.086;2023-06-14T03:09:17;99128.72;;;13.69;100.00
9289;BME280;4683;50.864;12.086;2023-06-14T03:11:46;99128.88;;;13.54;100.00
9289;BME280;4683;50.864;12.086;2023-06-14T03:14:15;99129.03;;;13.46;100.00
9289;BME280;4683;50.864;12.086;2023-06-14T03:16:48;99129.84;;;13.40;100.00
9289;BME280;4683;50.864;12.086;2023-06-14T03:19:17;99132.28;;;13.41;100.00
9289;BME280;4683;50.864;12.086;2023-06-14T03:21:46;99134.94;;;13.41;100.00
9289;BME280;4683;50.864;12.086;2023-06-14T03:24:14;99133.47;;;13.39;100.00
9289;BME280;4683;50.864;12.086;2023-06-14T03:26:43;99136.72;;;13.34;100.00
9289;BME280;4683;50.864;12.086;2023-06-14T03:29:12;99128.53;;;13.29;100.00
9289;BME280;4683;50.864;12.086;2023-06-14T03:31:59;99135.88;;;13.27;100.00
9289;BME280;4683;50.864;12.086;2023-06-14T03:34:28;99135.47;;;13.30;100.00
9289;BME280;4683;50.864;12.086;2023-06-14T03:36:57;99148.56;;;13.38;100.00
9289;BME280;4683;50.864;12.086;2023-06-14T03:39:29;99145.16;;;13.44;100.00
9289;BME280;4683;50.864;12.086;2023-06-14T03:41:58;99150.59;;;13.36;100.00
9289;BME280;4683;50.864;12.086;2023-06-14T03:44:27;99137.50;;;13.28;100.00
9289;BME280;4683;50.864;12.086;2023-06-14T03:46:55;99152.16;;;13.24;100.00
9289;BME280;4683;50.864;12.086;2023-06-14T03:49:29;99148.50;;;13.25;100.00
9289;BME280;4683;50.864;12.086;2023-06-14T03:51:57;99155.81;;;13.23;100.00
9289;BME280;4683;50.864;12.086;2023-06-14T03:54:26;99153.69;;;13.12;100.00
9289;BME280;4683;50.864;12.086;2023-06-14T03:56:56;99151.09;;;13.18;100.00
9289;BME280;4683;50.864;12.086;2023-06-14T03:59:26;99161.47;;;13.20;100.00
9289;BME280;4683;50.864;12.086;2023-06-14T04:01:55;99160.16;;;13.31;100.00
9289;BME280;4683;50.864;12.086;2023-06-14T04:04:25;99155.25;;;13.34;100.00
9289;BME280;4683;50.864;12.086;2023-06-14T04:06:57;99166.13;;;13.46;100.00
9289;BME280;4683;50.864;12.086;2023-06-14T04:09:27;99168.19;;;13.51;100.00
9289;BME280;4683;50.864;12.086;2023-06-14T04:11:57;99164.72;;;13.50;100.00
9289;BME280;4683;50.864;12.086;2023-06-14T04:14:26;99169.44;;;13.55;100.00
9289;BME280;4683;50.864;12.086;2023-06-14T04:16:55;99167.00;;;13.60;100.00
9289;BME280;4683;50.864;12.086;2023-06-14T04:19:23;99165.41;;;13.65;100.00
9289;BME280;4683;50.864;12.086;2023-06-14T04:21:52;99164.06;;;13.89;100.00
9289;BME280;4683;50.864;12.086;2023-06-14T04:24:23;99170.91;;;14.38;100.00
9289;BME280;4683;50.864;12.086;2023-06-14T04:26:59;99170.13;;;14.84;100.00
9289;BME280;4683;50.864;12.086;2023-06-14T04:29:28;99170.09;;;15.11;100.00
9289;BME280;4683;50.864;12.086;2023-06-14T04:31:56;99176.63;;;15.21;100.00
9289;BME280;4683;50.864;12.086;2023-06-14T04:34:28;99180.50;;;15.12;100.00
9289;BME280;4683;50.864;12.086;2023-06-14T04:37:00;99179.03;;;15.43;100.00
9289;BME280;4683;50.864;12.086;2023-06-14T04:39:33;99174.06;;;15.60;100.00
9289;BME280;4683;50.864;12.086;2023-06-14T04:42:04;99182.44;;;15.63;100.00
9289;BME280;4683;50.864;12.086;2023-06-14T04:44:33;99178.09;;;15.82;100.00
9289;BME280;4683;50.864;12.086;2023-06-14T04:47:03;99176.53;;;16.13;100.00
9289;BME280;4683;50.864;12.086;2023-06-14T04:49:31;99176.59;;;16.00;100.00
9289;BME280;4683;50.864;12.086;2023-06-14T04:52:01;99179.66;;;15.96;100.00
9289;BME280;4683;50.864;12.086;2023-06-14T04:54:33;99180.06;;;15.93;100.00
9289;BME280;4683;50.864;12.086;2023-06-14T04:57:05;99176.13;;;16.03;100.00
9289;BME280;4683;50.864;12.086;2023-06-14T04:59:33;99187.56;;;15.58;100.00
9289;BME280;4683;50.864;12.086;2023-06-14T05:02:04;99187.47;;;15.91;100.00
9289;BME280;4683;50.864;12.086;2023-06-14T05:04:33;99181.41;;;15.58;100.00
9289;BME280;4683;50.864;12.086;2023-06-14T05:07:07;99180.47;;;15.97;100.00
9289;BME280;4683;50.864;12.086;2023-06-14T05:09:39;99178.16;;;16.07;100.00
9289;BME280;4683;50.864;12.086;2023-06-14T05:12:08;99186.19;;;16.01;100.00
9289;BME280;4683;50.864;12.086;2023-06-14T05:14:36;99187.94;;;15.75;100.00
9289;BME280;4683;50.864;12.086;2023-06-14T05:17:06;99175.16;;;16.35;100.00
9289;BME280;4683;50.864;12.086;2023-06-14T05:19:37;99174.91;;;16.68;100.00
9289;BME280;4683;50.864;12.086;2023-06-14T05:22:05;99169.72;;;16.98;100.00
9289;BME280;4683;50.864;12.086;2023-06-14T05:24:35;99171.13;;;17.44;100.00
9289;BME280;4683;50.864;12.086;2023-06-14T05:27:05;99175.72;;;17.74;100.00
9289;BME280;4683;50.864;12.086;2023-06-14T05:29:34;99174.66;;;17.93;100.00
9289;BME280;4683;50.864;12.086;2023-06-14T05:32:04;99179.75;;;18.13;100.00
9289;BME280;4683;50.864;12.086;2023-06-14T05:34:33;99182.38;;;18.32;100.00
9289;BME280;4683;50.864;12.086;2023-06-14T05:37:10;99192.66;;;18.58;99.93
9289;BME280;4683;50.864;12.086;2023-06-14T05:39:39;99193.66;;;18.45;99.84
9289;BME280;4683;50.864;12.086;2023-06-14T05:42:12;99195.75;;;18.13;100.00
9289;BME280;4683;50.864;12.086;2023-06-14T05:44:40;99201.47;;;18.17;100.00
9289;BME280;4683;50.864;12.086;2023-06-14T05:47:11;99202.16;;;18.12;100.00
9289;BME280;4683;50.864;12.086;2023-06-14T05:49:40;99201.06;;;17.65;100.00
9289;BME280;4683;50.864;12.086;2023-06-14T05:52:09;99201.25;;;17.08;100.00
9289;BME280;4683;50.864;12.086;2023-06-14T05:54:40;99196.47;;;16.92;100.00
9289;BME280;4683;50.864;12.086;2023-06-14T05:57:10;99206.84;;;17.00;100.00
9289;BME280;4683;50.864;12.086;2023-06-14T05:59:39;99201.00;;;16.60;100.00
9289;BME280;4683;50.864;12.086;2023-06-14T06:02:08;99201.50;;;16.43;100.00
9289;BME280;4683;50.864;12.086;2023-06-14T06:04:37;99211.03;;;16.26;100.00
9289;BME280;4683;50.864;12.086;2023-06-14T06:07:05;99213.41;;;16.41;100.00
9289;BME280;4683;50.864;12.086;2023-06-14T06:09:34;99211.94;;;16.13;100.00
9289;BME280;4683;50.864;12.086;2023-06-14T06:12:05;99212.41;;;16.67;100.00
9289;BME280;4683;50.864;12.086;2023-06-14T06:14:35;99218.72;;;16.41;100.00
9289;BME280;4683;50.864;12.086;2023-06-14T06:17:04;99221.16;;;16.42;100.00
9289;BME280;4683;50.864;12.086;2023-06-14T06:19:35;99225.13;;;16.65;100.00
9289;BME280;4683;50.864;12.086;2023-06-14T06:22:04;99222.50;;;16.27;100.00
9289;BME280;4683;50.864;12.086;2023-06-14T06:24:33;99221.66;;;16.33;100.00
9289;BME280;4683;50.864;12.086;2023-06-14T06:27:04;99221.16;;;16.42;100.00
9289;BME280;4683;50.864;12.086;2023-06-14T06:29:37;99227.09;;;16.06;100.00
9289;BME280;4683;50.864;12.086;2023-06-14T06:32:06;99228.66;;;16.59;100.00
9289;BME280;4683;50.864;12.086;2023-06-14T06:34:36;99235.53;;;16.41;100.00
9289;BME280;4683;50.864;12.086;2023-06-14T06:37:06;99232.47;;;16.69;100.00
9289;BME280;4683;50.864;12.086;2023-06-14T06:39:35;99249.53;;;16.93;100.00
9289;BME280;4683;50.864;12.086;2023-06-14T06:42:05;99237.91;;;16.88;100.00
9289;BME280;4683;50.864;12.086;2023-06-14T06:44:35;99240.97;;;16.53;100.00
9289;BME280;4683;50.864;12.086;2023-06-14T06:47:05;99233.06;;;16.78;100.00
9289;BME280;4683;50.864;12.086;2023-06-14T06:49:34;99235.66;;;17.10;100.00
9289;BME280;4683;50.864;12.086;2023-06-14T06:52:05;99242.09;;;17.27;100.00
9289;BME280;4683;50.864;12.086;2023-06-14T06:54:34;99236.91;;;17.32;100.00
9289;BME280;4683;50.864;12.086;2023-06-14T06:57:04;99241.75;;;17.60;100.00
9289;BME280;4683;50.864;12.086;2023-06-14T06:59:36;99237.81;;;17.44;100.00
9289;BME280;4683;50.864;12.086;2023-06-14T07:02:05;99244.91;;;17.32;100.00
9289;BME280;4683;50.864;12.086;2023-06-14T07:04:35;99240.19;;;17.71;100.00
9289;BME280;4683;50.864;12.086;2023-06-14T07:07:05;99252.66;;;17.59;100.00
9289;BME280;4683;50.864;12.086;2023-06-14T07:09:36;99243.91;;;18.07;100.00
9289;BME280;4683;50.864;12.086;2023-06-14T07:12:07;99253.88;;;17.81;100.00
9289;BME280;4683;50.864;12.086;2023-06-14T07:14:37;99257.66;;;17.48;100.00
9289;BME280;4683;50.864;12.086;2023-06-14T07:17:06;99256.44;;;17.88;100.00
9289;BME280;4683;50.864;12.086;2023-06-14T07:19:34;99256.03;;;18.21;100.00
9289;BME280;4683;50.864;12.086;2023-06-14T07:22:03;99254.78;;;18.54;100.00
9289;BME280;4683;50.864;12.086;2023-06-14T07:24:32;99253.84;;;18.78;100.00
9289;BME280;4683;50.864;12.086;2023-06-14T07:27:03;99258.38;;;18.89;99.60
9289;BME280;4683;50.864;12.086;2023-06-14T07:29:32;99248.94;;;18.75;99.00
9289;BME280;4683;50.864;12.086;2023-06-14T07:32:02;99265.56;;;18.47;98.74
9289;BME280;4683;50.864;12.086;2023-06-14T07:34:32;99257.63;;;18.10;100.00
9289;BME280;4683;50.864;12.086;2023-06-14T07:37:01;99264.16;;;17.96;100.00
9289;BME280;4683;50.864;12.086;2023-06-14T07:39:30;99267.06;;;18.13;100.00
9289;BME280;4683;50.864;12.086;2023-06-14T07:41:59;99264.66;;;18.53;100.00
9289;BME280;4683;50.864;12.086;2023-06-14T07:44:31;99260.22;;;18.77;96.81
9289;BME280;4683;50.864;12.086;2023-06-14T07:47:01;99266.66;;;18.99;93.76
9289;BME280;4683;50.864;12.086;2023-06-14T07:49:30;99265.97;;;19.16;93.17
9289;BME280;4683;50.864;12.086;2023-06-14T07:52:00;99261.97;;;18.83;94.95
9289;BME280;4683;50.864;12.086;2023-06-14T07:54:28;99263.44;;;19.09;92.52
9289;BME280;4683;50.864;12.086;2023-06-14T07:56:59;99260.88;;;19.14;91.36
9289;BME280;4683;50.864;12.086;2023-06-14T07:59:27;99255.88;;;19.18;92.60
9289;BME280;4683;50.864;12.086;2023-06-14T08:01:57;99257.16;;;19.39;91.26
9289;BME280;4683;50.864;12.086;2023-06-14T08:04:31;99264.81;;;19.47;89.30
9289;BME280;4683;50.864;12.086;2023-06-14T08:06:59;99259.81;;;19.50;89.63
9289;BME280;4683;50.864;12.086;2023-06-14T08:09:31;99258.56;;;19.41;88.31
9289;BME280;4683;50.864;12.086;2023-06-14T08:12:01;99259.13;;;19.43;87.10
9289;BME280;4683;50.864;12.086;2023-06-14T08:14:29;99266.56;;;19.41;86.84
9289;BME280;4683;50.864;12.086;2023-06-14T08:16:58;99263.66;;;19.66;85.84
9289;BME280;4683;50.864;12.086;2023-06-14T08:19:28;99269.25;;;19.65;83.99
9289;BME280;4683;50.864;12.086;2023-06-14T08:21:57;99259.25;;;19.72;83.68
9289;BME280;4683;50.864;12.086;2023-06-14T08:24:27;99267.50;;;19.47;85.67
9289;BME280;4683;50.864;12.086;2023-06-14T08:26:56;99259.84;;;19.27;88.53
9289;BME280;4683;50.864;12.086;2023-06-14T08:29:27;99268.31;;;19.71;84.42
9289;BME280;4683;50.864;12.086;2023-06-14T08:31:58;99264.50;;;19.67;82.97
9289;BME280;4683;50.864;12.086;2023-06-14T08:34:29;99257.75;;;19.76;82.15
9289;BME280;4683;50.864;12.086;2023-06-14T08:37:01;99258.78;;;19.51;85.99
9289;BME280;4683;50.864;12.086;2023-06-14T08:39:29;99259.09;;;19.90;83.11
9289;BME280;4683;50.864;12.086;2023-06-14T08:41:58;99265.44;;;19.61;85.33
9289;BME280;4683;50.864;12.086;2023-06-14T08:44:30;99264.47;;;19.90;83.66
9289;BME280;4683;50.864;12.086;2023-06-14T08:47:00;99257.78;;;20.05;82.45
9289;BME280;4683;50.864;12.086;2023-06-14T08:49:33;99259.50;;;20.51;77.43
9289;BME280;4683;50.864;12.086;2023-06-14T08:52:03;99255.50;;;20.82;73.27
9289;BME280;4683;50.864;12.086;2023-06-14T08:54:34;99252.53;;;20.38;74.75
9289;BME280;4683;50.864;12.086;2023-06-14T08:57:12;99247.03;;;21.07;71.43
9289;BME280;4683;50.864;12.086;2023-06-14T08:59:48;99245.72;;;21.43;68.42
9289;BME280;4683;50.864;12.086;2023-06-14T09:02:19;99246.38;;;21.50;66.86
9289;BME280;4683;50.864;12.086;2023-06-14T09:04:50;99257.59;;;21.47;64.84
9289;BME280;4683;50.864;12.086;2023-06-14T09:07:19;99250.44;;;21.53;64.33
9289;BME280;4683;50.864;12.086;2023-06-14T09:09:48;99249.78;;;21.85;62.56
9289;BME280;4683;50.864;12.086;2023-06-14T09:12:16;99260.06;;;21.49;60.35
9289;BME280;4683;50.864;12.086;2023-06-14T09:14:45;99255.06;;;21.07;61.65
9289;BME280;4683;50.864;12.086;2023-06-14T09:17:14;99253.53;;;21.28;60.97
9289;BME280;4683;50.864;12.086;2023-06-14T09:19:43;99264.59;;;21.15;62.80
9289;BME280;4683;50.864;12.086;2023-06-14T09:22:17;99274.34;;;21.21;62.40
9289;BME280;4683;50.864;12.086;2023-06-14T09:24:45;99271.91;;;21.02;62.19
9289;BME280;4683;50.864;12.086;2023-06-14T09:27:22;99277.63;;;21.23;60.67
9289;BME280;4683;50.864;12.086;2023-06-14T09:29:56;99280.53;;;21.05;60.67
9289;BME280;4683;50.864;12.086;2023-06-14T09:32:25;99264.34;;;21.50;59.52
9289;BME280;4683;50.864;12.086;2023-06-14T09:34:54;99253.72;;;21.77;58.58
9289;BME280;4683;50.864;12.086;2023-06-14T09:37:32;99267.72;;;22.01;57.48
9289;BME280;4683;50.864;12.086;2023-06-14T09:40:01;99263.94;;;21.58;58.77
9289;BME280;4683;50.864;12.086;2023-06-14T09:42:31;99256.13;;;21.57;59.34
9289;BME280;4683;50.864;12.086;2023-06-14T09:45:04;99260.22;;;22.03;58.17
9289;BME280;4683;50.864;12.086;2023-06-14T09:47:37;99256.22;;;22.06;57.05
9289;BME280;4683;50.864;12.086;2023-06-14T09:50:08;99259.41;;;22.02;55.74
9289;BME280;4683;50.864;12.086;2023-06-14T09:52:39;99261.97;;;21.92;57.05
9289;BME280;4683;50.864;12.086;2023-06-14T09:55:13;99262.53;;;22.16;55.78
9289;BME280;4683;50.864;12.086;2023-06-14T09:57:42;99257.31;;;22.53;54.67
9289;BME280;4683;50.864;12.086;2023-06-14T10:00:15;99251.16;;;22.85;54.14
9289;BME280;4683;50.864;12.086;2023-06-14T10:02:54;99253.19;;;22.46;53.07
9289;BME280;4683;50.864;12.086;2023-06-14T10:05:27;99262.09;;;22.24;54.65
9289;BME280;4683;50.864;12.086;2023-06-14T10:08:03;99269.47;;;22.34;53.85
9289;BME280;4683;50.864;12.086;2023-06-14T10:10:32;99261.34;;;22.29;53.77
9289;BME280;4683;50.864;12.086;2023-06-14T10:13:01;99258.16;;;22.32;53.42
9289;BME280;4683;50.864;12.086;2023-06-14T10:15:38;99266.06;;;22.17;53.20
9289;BME280;4683;50.864;12.086;2023-06-14T10:18:17;99261.47;;;22.39;52.44
9289;BME280;4683;50.864;12.086;2023-06-14T10:20:58;99265.72;;;22.35;52.27
9289;BME280;4683;50.864;12.086;2023-06-14T10:23:37;99267.09;;;22.65;51.96
9289;BME280;4683;50.864;12.086;2023-06-14T10:26:08;99250.03;;;23.08;50.18
9289;BME280;4683;50.864;12.086;2023-06-14T10:28:38;99259.47;;;22.84;50.94
9289;BME280;4683;50.864;12.086;2023-06-14T10:31:08;99246.66;;;23.28;49.27
9289;BME280;4683;50.864;12.086;2023-06-14T10:33:40;99238.31;;;23.67;47.73
9289;BME280;4683;50.864;12.086;2023-06-14T10:36:27;99238.88;;;23.79;47.31
9289;BME280;4683;50.864;12.086;2023-06-14T10:39:06;99247.84;;;23.95;46.61
9289;BME280;4683;50.864;12.086;2023-06-14T10:41:36;99250.66;;;23.25;48.20
9289;BME280;4683;50.864;12.086;2023-06-14T10:44:51;99249.28;;;22.10;49.55
9289;BME280;4683;50.864;12.086;2023-06-14T10:47:32;99245.59;;;22.38;49.84
9289;BME280;4683;50.864;12.086;2023-06-14T10:50:06;99248.84;;;22.67;48.13
9289;BME280;4683;50.864;12.086;2023-06-14T10:52:38;99233.66;;;22.56;48.16
9289;BME280;4683;50.864;12.086;2023-06-14T10:55:11;99243.63;;;22.87;48.46
9289;BME280;4683;50.864;12.086;2023-06-14T10:57:43;99229.84;;;23.11;48.31
9289;BME280;4683;50.864;12.086;2023-06-14T11:00:15;99244.56;;;23.35;47.74
9289;BME280;4683;50.864;12.086;2023-06-14T11:05:59;99236.94;;;23.64;47.10
9289;BME280;4683;50.864;12.086;2023-06-14T11:09:26;99235.13;;;23.80;46.37
9289;BME280;4683;50.864;12.086;2023-06-14T11:12:03;99228.19;;;23.99;46.11
9289;BME280;4683;50.864;12.086;2023-06-14T11:14:32;99228.53;;;24.34;45.45
9289;BME280;4683;50.864;12.086;2023-06-14T11:17:00;99229.97;;;24.57;44.55
9289;BME280;4683;50.864;12.086;2023-06-14T11:19:29;99228.09;;;24.62;44.13
9289;BME280;4683;50.864;12.086;2023-06-14T11:22:00;99229.44;;;24.65;43.32
9289;BME280;4683;50.864;12.086;2023-06-14T11:24:28;99233.75;;;24.50;42.68
9289;BME280;4683;50.864;12.086;2023-06-14T11:26:58;99232.13;;;24.49;42.96
9289;BME280;4683;50.864;12.086;2023-06-14T11:29:29;99233.34;;;24.16;43.82
9289;BME280;4683;50.864;12.086;2023-06-14T11:31:59;99234.22;;;24.27;43.96
9289;BME280;4683;50.864;12.086;2023-06-14T11:34:28;99237.09;;;24.05;43.68
9289;BME280;4683;50.864;12.086;2023-06-14T11:36:56;99223.47;;;23.69;44.43
9289;BME280;4683;50.864;12.086;2023-06-14T11:39:26;99222.31;;;23.55;44.74
9289;BME280;4683;50.864;12.086;2023-06-14T11:41:55;99208.78;;;23.40;45.26
9289;BME280;4683;50.864;12.086;2023-06-14T11:44:32;99216.00;;;23.87;44.66
9289;BME280;4683;50.864;12.086;2023-06-14T11:47:04;99223.59;;;23.90;43.08
9289;BME280;4683;50.864;12.086;2023-06-14T11:49:37;99212.63;;;24.27;42.05
9289;BME280;4683;50.864;12.086;2023-06-14T11:52:06;99217.00;;;24.43;41.95
9289;BME280;4683;50.864;12.086;2023-06-14T11:54:36;99206.50;;;24.57;41.86
9289;BME280;4683;50.864;12.086;2023-06-14T11:57:06;99196.50;;;24.47;42.18
9289;BME280;4683;50.864;12.086;2023-06-14T11:59:41;99201.88;;;24.37;42.79
9289;BME280;4683;50.864;12.086;2023-06-14T12:02:14;99199.16;;;24.22;43.01
9289;BME280;4683;50.864;12.086;2023-06-14T12:04:43;99196.56;;;23.79;43.51
9289;BME280;4683;50.864;12.086;2023-06-14T12:07:15;99200.63;;;23.82;43.44
9289;BME280;4683;50.864;12.086;2023-06-14T12:10:07;99190.00;;;23.55;43.48
9289;BME280;4683;50.864;12.086;2023-06-14T12:12:39;99197.41;;;23.80;42.89
9289;BME280;4683;50.864;12.086;2023-06-14T12:15:11;99195.56;;;24.01;42.05
9289;BME280;4683;50.864;12.086;2023-06-14T12:17:43;99201.00;;;24.16;41.77
9289;BME280;4683;50.864;12.086;2023-06-14T12:20:14;99201.84;;;24.22;41.45
9289;BME280;4683;50.864;12.086;2023-06-14T12:22:53;99193.47;;;24.28;41.43
9289;BME280;4683;50.864;12.086;2023-06-14T12:25:32;99191.38;;;24.51;41.10
9289;BME280;4683;50.864;12.086;2023-06-14T12:28:05;99192.19;;;24.41;41.57
9289;BME280;4683;50.864;12.086;2023-06-14T12:30:38;99191.59;;;24.29;41.49
9289;BME280;4683;50.864;12.086;2023-06-14T12:33:07;99184.09;;;24.46;41.19
9289;BME280;4683;50.864;12.086;2023-06-14T12:35:35;99192.19;;;24.62;40.40
9289;BME280;4683;50.864;12.086;2023-06-14T12:38:05;99186.78;;;24.51;40.46
9289;BME280;4683;50.864;12.086;2023-06-14T12:40:34;99185.38;;;24.23;39.75
9289;BME280;4683;50.864;12.086;2023-06-14T12:43:04;99186.19;;;24.34;39.99
9289;BME280;4683;50.864;12.086;2023-06-14T12:45:33;99176.81;;;24.88;39.41
9289;BME280;4683;50.864;12.086;2023-06-14T12:48:04;99186.25;;;24.75;39.37
9289;BME280;4683;50.864;12.086;2023-06-14T12:50:32;99186.81;;;24.82;39.29
9289;BME280;4683;50.864;12.086;2023-06-14T12:53:01;99184.66;;;24.74;40.34
9289;BME280;4683;50.864;12.086;2023-06-14T12:55:29;99185.19;;;24.91;39.54
9289;BME280;4683;50.864;12.086;2023-06-14T12:57:58;99184.94;;;25.08;39.31
9289;BME280;4683;50.864;12.086;2023-06-14T13:00:26;99181.66;;;25.01;39.87
9289;BME280;4683;50.864;12.086;2023-06-14T13:02:57;99184.09;;;24.97;40.01
9289;BME280;4683;50.864;12.086;2023-06-14T13:05:27;99187.31;;;25.04;39.54
9289;BME280;4683;50.864;12.086;2023-06-14T13:07:55;99195.44;;;24.74;40.05
9289;BME280;4683;50.864;12.086;2023-06-14T13:10:24;99183.81;;;24.84;40.63
9289;BME280;4683;50.864;12.086;2023-06-14T13:12:54;99193.53;;;24.79;40.88
9289;BME280;4683;50.864;12.086;2023-06-14T13:15:24;99189.78;;;24.45;41.29
9289;BME280;4683;50.864;12.086;2023-06-14T13:17:53;99192.94;;;24.26;41.74
9289;BME280;4683;50.864;12.086;2023-06-14T13:20:22;99185.97;;;24.66;41.02
9289;BME280;4683;50.864;12.086;2023-06-14T13:22:52;99201.66;;;24.64;41.16
9289;BME280;4683;50.864;12.086;2023-06-14T13:25:21;99188.16;;;24.59;41.18
9289;BME280;4683;50.864;12.086;2023-06-14T13:27:50;99199.41;;;24.20;42.05
9289;BME280;4683;50.864;12.086;2023-06-14T13:30:18;99186.53;;;24.68;41.13
9289;BME280;4683;50.864;12.086;2023-06-14T13:32:48;99192.75;;;24.74;40.63
9289;BME280;4683;50.864;12.086;2023-06-14T13:35:19;99194.91;;;24.77;40.47